Time;durP1;ratioP1;P1;durP2;ratioP2;P2;SDS_P1;SDS_P2;PMS_P1;PMS_P2;Temp;Humidity;BMP_temperature;BMP_pressure;BME280_temperature;BME280_humidity;BME280_pressure;Samples;Min_cycle;Max_cycle;Signal;HPM_P1;HPM_P2
2022/01/30 00:00:10;;;;;;;14.63;14.02;;;7.10;91.40;;;;;;5052351;28;20250;-72
2022/01/30 00:02:38;;;;;;;14.50;13.80;;;7.20;91.00;;;;;;5052622;28;20279;-72
2022/01/30 00:05:08;;;;;;;13.88;13.27;;;7.20;90.60;;;;;;5052620;28;20200;-72
2022/01/30 00:07:35;;;;;;;14.45;13.85;;;7.20;90.20;;;;;;5052488;28;20231;-73
2022/01/30 00:10:03;;;;;;;14.50;13.80;;;7.20;90.50;;;;;;5051976;28;20216;-72
2022/01/30 00:12:40;;;;;;;14.20;13.60;;;7.20;90.90;;;;;;5052591;28;20196;-72
2022/01/30 00:15:08;;;;;;;15.02;14.35;;;7.20;90.70;;;;;;5052411;28;20219;-72
2022/01/30 00:17:41;;;;;;;14.60;13.90;;;7.20;90.80;;;;;;5052405;28;20201;-72
2022/01/30 00:20:16;;;;;;;14.60;14.00;;;7.30;91.50;;;;;;5052227;28;20598;-72
2022/01/30 00:22:49;;;;;;;15.18;14.48;;;7.30;90.70;;;;;;5052471;28;20204;-72
2022/01/30 00:25:18;;;;;;;14.60;13.90;;;7.40;90.50;;;;;;5052402;28;20203;-72
2022/01/30 00:27:49;;;;;;;14.98;14.27;;;7.40;90.40;;;;;;5052353;28;20311;-72
2022/01/30 00:30:18;;;;;;;15.27;14.57;;;7.30;90.30;;;;;;5051976;28;20278;-72
2022/01/30 00:32:45;;;;;;;14.40;13.80;;;7.40;90.70;;;;;;5052335;28;20196;-72
2022/01/30 00:35:14;;;;;;;14.73;14.13;;;7.50;90.30;;;;;;5052294;28;20204;-73
2022/01/30 00:37:43;;;;;;;14.70;14.10;;;7.50;90.10;;;;;;5051408;28;20741;-72
2022/01/30 00:40:11;;;;;;;14.90;14.25;;;7.50;89.90;;;;;;5051925;28;20609;-72
2022/01/30 00:42:38;;;;;;;14.90;14.20;;;7.60;89.60;;;;;;5052144;28;20212;-72
2022/01/30 00:45:07;;;;;;;14.82;14.20;;;7.50;89.70;;;;;;5052060;28;20203;-72
2022/01/30 00:47:33;;;;;;;15.35;14.55;;;7.60;89.70;;;;;;5051997;28;20216;-73
2022/01/30 00:50:01;;;;;;;15.30;14.60;;;7.60;89.40;;;;;;5051873;28;20220;-72
2022/01/30 00:52:29;;;;;;;15.32;14.63;;;7.60;89.30;;;;;;5052135;28;20207;-72
2022/01/30 00:54:56;;;;;;;14.50;13.90;;;7.60;89.50;;;;;;5052116;28;20291;-72
2022/01/30 00:57:23;;;;;;;15.43;14.73;;;7.70;89.40;;;;;;5052043;28;20283;-72
2022/01/30 00:59:50;;;;;;;15.25;14.55;;;7.70;89.70;;;;;;5051612;28;20232;-72
2022/01/30 01:02:17;;;;;;;14.77;14.18;;;7.70;89.70;;;;;;5052197;28;20196;-72
2022/01/30 01:04:44;;;;;;;14.40;13.80;;;7.70;89.70;;;;;;5051951;28;20719;-72
2022/01/30 01:07:18;;;;;;;15.20;14.50;;;7.80;89.80;;;;;;5051875;28;20201;-72
2022/01/30 01:09:53;;;;;;;14.90;14.20;;;7.80;89.70;;;;;;5051454;28;20278;-72
2022/01/30 01:23:26;;;;;;;14.43;13.82;;;7.90;90.00;;;;;;5052003;28;20731;-72
2022/01/30 01:25:55;;;;;;;14.27;13.68;;;8.00;90.10;;;;;;5051923;28;20207;-72
2022/01/30 01:28:22;;;;;;;14.35;13.65;;;7.90;90.10;;;;;;5051697;28;20311;-72
2022/01/30 01:30:49;;;;;;;14.63;13.95;;;7.90;90.40;;;;;;5051584;28;20220;-72
2022/01/30 01:33:17;;;;;;;14.70;14.00;;;7.90;90.60;;;;;;5051740;28;20199;-72
2022/01/30 01:35:44;;;;;;;15.10;14.40;;;7.80;90.70;;;;;;5051744;28;20607;-72
2022/01/30 01:38:13;;;;;;;15.10;14.30;;;7.90;90.90;;;;;;5051825;28;20193;-72
2022/01/30 01:40:40;;;;;;;14.88;14.18;;;7.90;90.90;;;;;;5051413;28;20220;-72
2022/01/30 01:43:08;;;;;;;14.45;13.68;;;7.90;90.70;;;;;;5051600;28;20609;-72
2022/01/30 01:45:38;;;;;;;14.75;14.15;;;8.00;90.80;;;;;;5051626;28;20274;-72
2022/01/30 01:48:11;;;;;;;14.95;14.25;;;8.00;90.60;;;;;;5051781;28;20763;-72
2022/01/30 01:50:39;;;;;;;14.30;13.60;;;8.00;90.40;;;;;;5055040;28;20216;-72
2022/01/30 01:53:08;;;;;;;14.20;13.60;;;8.00;90.40;;;;;;5055322;28;20595;-72
2022/01/30 01:55:36;;;;;;;14.75;14.05;;;8.00;90.40;;;;;;5054905;28;20208;-72
2022/01/30 01:58:03;;;;;;;15.38;14.68;;;7.90;90.50;;;;;;5055121;28;20572;-72
2022/01/30 02:00:32;;;;;;;14.52;13.82;;;7.90;90.70;;;;;;5054705;28;20228;-72
2022/01/30 02:02:59;;;;;;;14.90;14.20;;;7.90;90.60;;;;;;5055153;28;20197;-72
2022/01/30 02:05:27;;;;;;;15.20;14.43;;;7.90;90.70;;;;;;5054949;28;20386;-72
2022/01/30 02:10:56;;;;;;;14.27;13.68;;;7.90;90.40;;;;;;5054670;28;20207;-72
2022/01/30 02:13:44;;;;;;;15.13;14.32;;;7.80;90.80;;;;;;5054772;28;20200;-72
2022/01/30 02:24:39;;;;;;;14.98;14.18;;;7.90;91.20;;;;;;5054615;28;20249;-72
2022/01/30 02:27:06;;;;;;;14.60;13.82;;;7.90;90.80;;;;;;5054623;28;20201;-72
2022/01/30 02:29:34;;;;;;;16.45;15.55;;;7.80;91.00;;;;;;5054257;28;20221;-72
2022/01/30 02:32:02;;;;;;;15.90;14.85;;;7.90;90.80;;;;;;5054549;28;20737;-72
2022/01/30 02:34:30;;;;;;;14.75;14.15;;;7.90;90.60;;;;;;5054366;28;20224;-72
2022/01/30 02:36:59;;;;;;;14.70;14.00;;;7.90;90.90;;;;;;5054460;28;20295;-72
2022/01/30 02:39:26;;;;;;;14.77;14.18;;;7.90;91.10;;;;;;5054034;28;20203;-72
2022/01/30 02:41:55;;;;;;;15.10;14.40;;;7.90;91.30;;;;;;5054330;28;20250;-72
2022/01/30 02:44:26;;;;;;;14.77;14.07;;;7.80;91.10;;;;;;5054290;28;20460;-72
2022/01/30 02:46:58;;;;;;;15.18;14.57;;;7.90;91.00;;;;;;5054227;28;20254;-72
2022/01/30 02:49:42;;;;;;;15.25;14.55;;;7.80;91.10;;;;;;5053930;28;20315;-72
2022/01/30 02:52:10;;;;;;;14.85;14.20;;;7.80;91.20;;;;;;5054175;28;20266;-72
2022/01/30 02:54:37;;;;;;;14.77;14.07;;;7.80;91.30;;;;;;5054233;28;20271;-72
2022/01/30 02:57:06;;;;;;;14.48;13.88;;;7.90;91.00;;;;;;5054301;28;20283;-72
2022/01/30 02:59:33;;;;;;;14.95;14.35;;;7.80;91.20;;;;;;5053491;28;20291;-72
2022/01/30 03:02:01;;;;;;;14.55;13.85;;;7.80;91.00;;;;;;5053629;28;20197;-72
2022/01/30 03:04:28;;;;;;;15.20;14.50;;;7.80;91.50;;;;;;5053937;28;20201;-73
2022/01/30 03:06:55;;;;;;;15.23;14.32;;;7.80;91.30;;;;;;5053887;28;20666;-72
2022/01/30 03:09:22;;;;;;;15.15;14.15;;;7.80;91.30;;;;;;5053254;28;20228;-72
2022/01/30 03:11:49;;;;;;;15.50;14.80;;;7.70;91.40;;;;;;5053915;28;20263;-72
2022/01/30 03:14:18;;;;;;;15.40;14.55;;;7.80;91.50;;;;;;5053459;28;20280;-72
2022/01/30 03:16:44;;;;;;;15.02;14.23;;;8.00;90.70;;;;;;5053566;28;20658;-73
2022/01/30 03:19:12;;;;;;;15.45;14.50;;;8.00;90.70;;;;;;5053323;28;20192;-72
2022/01/30 03:21:39;;;;;;;15.25;14.45;;;8.00;90.90;;;;;;5053571;28;20221;-73
2022/01/30 03:24:06;;;;;;;15.20;14.50;;;8.10;90.60;;;;;;5053459;28;20283;-72
2022/01/30 03:26:38;;;;;;;15.48;14.57;;;8.10;90.60;;;;;;5053637;28;20216;-72
2022/01/30 03:29:06;;;;;;;15.43;14.52;;;8.20;90.50;;;;;;5053474;28;20312;-72
2022/01/30 03:31:36;;;;;;;15.20;14.48;;;8.20;90.40;;;;;;5053180;28;20225;-73
2022/01/30 03:34:04;;;;;;;15.15;14.45;;;8.20;90.20;;;;;;5053353;28;20729;-72
2022/01/30 03:36:31;;;;;;;14.70;14.00;;;8.20;90.50;;;;;;5053267;28;20202;-72
2022/01/30 03:38:59;;;;;;;16.77;15.45;;;8.20;90.20;;;;;;5053158;28;20228;-72
2022/01/30 03:41:26;;;;;;;14.43;13.82;;;8.20;90.20;;;;;;5053112;28;20308;-72
2022/01/30 03:43:53;;;;;;;18.20;16.98;;;8.20;91.50;;;;;;5053262;28;20646;-73
2022/01/30 03:46:23;;;;;;;14.50;13.90;;;8.30;90.10;;;;;;5053123;28;20737;-73
2022/01/30 03:48:51;;;;;;;16.45;15.57;;;8.20;90.00;;;;;;5053026;28;20657;-73
2022/01/30 03:51:18;;;;;;;14.88;14.18;;;8.20;90.00;;;;;;5053029;28;20255;-73
2022/01/30 03:53:45;;;;;;;14.80;14.10;;;8.30;89.70;;;;;;5052974;28;20279;-73
2022/01/30 03:56:12;;;;;;;15.57;14.77;;;8.30;89.50;;;;;;5053049;28;20287;-73
2022/01/30 03:58:39;;;;;;;15.10;14.30;;;8.30;89.30;;;;;;5052673;28;20275;-73
2022/01/30 04:01:06;;;;;;;15.50;14.70;;;8.30;89.10;;;;;;5052695;28;20222;-73
2022/01/30 04:03:33;;;;;;;15.25;14.55;;;8.30;89.00;;;;;;5052790;28;20676;-73
2022/01/30 04:06:02;;;;;;;15.00;14.30;;;8.40;88.60;;;;;;5052911;28;20280;-73
2022/01/30 04:08:29;;;;;;;15.48;14.57;;;8.40;88.30;;;;;;5052543;28;20213;-73
2022/01/30 04:10:56;;;;;;;15.40;14.60;;;8.30;88.30;;;;;;5052494;28;20221;-73
2022/01/30 04:13:23;;;;;;;15.27;14.57;;;8.40;88.30;;;;;;5052525;28;20715;-73
2022/01/30 04:15:51;;;;;;;16.00;15.20;;;8.30;88.30;;;;;;5052675;28;20196;-73
2022/01/30 04:18:18;;;;;;;16.08;15.27;;;8.40;87.70;;;;;;5052619;28;20654;-73
2022/01/30 04:20:45;;;;;;;15.90;15.20;;;8.40;87.50;;;;;;5052332;28;20217;-73
2022/01/30 04:23:14;;;;;;;15.35;14.65;;;8.40;87.20;;;;;;5052619;28;20658;-73
2022/01/30 04:25:40;;;;;;;17.00;16.00;;;8.40;87.10;;;;;;5052440;28;20232;-73
2022/01/30 04:28:08;;;;;;;16.98;15.88;;;8.40;87.10;;;;;;5052358;28;20196;-73
2022/01/30 04:30:36;;;;;;;16.95;15.68;;;8.40;86.70;;;;;;5052167;28;20217;-73
2022/01/30 04:33:03;;;;;;;17.50;16.40;;;8.30;86.60;;;;;;5052663;28;20196;-73
2022/01/30 04:35:30;;;;;;;18.23;16.83;;;8.30;86.50;;;;;;5052292;28;20239;-73
2022/01/30 04:38:14;;;;;;;17.45;16.45;;;8.30;85.80;;;;;;5052271;28;20250;-73
2022/01/30 04:52:20;;;;;;;18.48;17.27;;;8.30;83.90;;;;;;5031192;28;20651;-73
2022/01/30 05:00:51;;;;;;;19.70;18.40;;;8.20;84.30;;;;;;5049917;28;20282;-73
2022/01/30 05:03:29;;;;;;;19.60;18.30;;;8.20;83.70;;;;;;5052164;28;20563;-73
2022/01/30 05:06:02;;;;;;;19.60;18.30;;;8.20;83.20;;;;;;5052065;28;20204;-73
2022/01/30 05:08:30;;;;;;;22.90;21.02;;;8.10;83.30;;;;;;5051860;28;20311;-73
2022/01/30 05:10:57;;;;;;;19.65;18.15;;;8.10;82.70;;;;;;5051849;28;20238;-73
2022/01/30 05:13:29;;;;;;;19.23;18.00;;;8.10;82.90;;;;;;5052105;28;20204;-73
2022/01/30 05:15:56;;;;;;;19.15;17.95;;;8.10;83.30;;;;;;5051913;28;20200;-72
2022/01/30 05:18:26;;;;;;;20.83;18.95;;;8.20;82.30;;;;;;5051950;28;20618;-73
2022/01/30 05:20:54;;;;;;;19.13;17.83;;;8.00;82.70;;;;;;5051965;28;20578;-73
2022/01/30 05:23:21;;;;;;;20.90;19.10;;;7.80;82.40;;;;;;5052478;28;20196;-73
2022/01/30 05:25:49;;;;;;;20.42;19.08;;;7.90;82.60;;;;;;5055725;28;20211;-73
2022/01/30 05:28:17;;;;;;;20.05;18.75;;;7.90;82.00;;;;;;5055649;28;20199;-73
2022/01/30 05:30:46;;;;;;;21.20;19.80;;;7.90;82.20;;;;;;5055422;28;20547;-73
2022/01/30 05:33:14;;;;;;;20.77;19.27;;;7.90;81.80;;;;;;5055700;28;20283;-73
2022/01/30 05:35:41;;;;;;;22.35;20.63;;;7.90;81.70;;;;;;5055711;28;20197;-73
2022/01/30 05:38:08;;;;;;;19.80;18.38;;;7.90;81.80;;;;;;5055782;28;20192;-73
2022/01/30 05:40:36;;;;;;;20.48;18.85;;;7.90;82.20;;;;;;5055120;28;20224;-73
2022/01/30 05:43:04;;;;;;;20.60;18.73;;;7.90;81.90;;;;;;5055582;28;20755;-73
2022/01/30 05:45:35;;;;;;;20.20;18.80;;;7.90;82.40;;;;;;5055502;28;20627;-73
2022/01/30 05:48:08;;;;;;;20.63;19.23;;;7.90;82.00;;;;;;5055473;28;20287;-73
2022/01/30 05:50:36;;;;;;;20.27;18.75;;;7.80;82.10;;;;;;5054970;28;20696;-73
2022/01/30 05:53:03;;;;;;;20.20;18.73;;;7.80;82.20;;;;;;5055339;28;20279;-73
2022/01/30 05:55:31;;;;;;;20.58;19.10;;;7.80;83.30;;;;;;5055216;28;20280;-71
2022/01/30 05:57:58;;;;;;;20.42;19.10;;;7.80;82.30;;;;;;5055193;28;20562;-71
2022/01/30 06:00:25;;;;;;;20.35;18.65;;;7.80;82.50;;;;;;5055444;28;20230;-72
2022/01/30 06:02:52;;;;;;;21.40;19.65;;;7.80;81.90;;;;;;5055608;28;20210;-71
2022/01/30 06:05:23;;;;;;;21.70;19.52;;;7.80;82.30;;;;;;5055009;28;20205;-71
2022/01/30 06:07:52;;;;;;;20.35;18.90;;;7.80;82.30;;;;;;5054786;28;20238;-72
2022/01/30 06:10:21;;;;;;;20.88;19.10;;;7.90;82.10;;;;;;5054347;28;20225;-71
2022/01/30 06:12:47;;;;;;;22.48;20.58;;;7.80;82.10;;;;;;5055081;28;20284;-71
2022/01/30 06:15:15;;;;;;;20.67;19.05;;;7.80;81.70;;;;;;5054876;28;20292;-71
2022/01/30 06:17:43;;;;;;;21.20;20.00;;;7.70;81.40;;;;;;5055056;28;20201;-71
2022/01/30 06:20:11;;;;;;;23.20;20.13;;;7.70;81.10;;;;;;5054445;28;20225;-71
2022/01/30 06:22:40;;;;;;;21.73;19.85;;;7.80;80.90;;;;;;5054636;28;20676;-71
2022/01/30 06:25:08;;;;;;;20.75;19.23;;;7.80;81.10;;;;;;5054483;28;20197;-71
2022/01/30 06:27:35;;;;;;;20.90;19.50;;;7.70;80.40;;;;;;5054526;28;20733;-71
2022/01/30 06:30:02;;;;;;;22.02;20.25;;;7.60;79.40;;;;;;5054301;28;20589;-72
2022/01/30 06:32:29;;;;;;;21.90;20.58;;;7.60;80.20;;;;;;5054470;28;20203;-72
2022/01/30 06:34:55;;;;;;;21.70;19.92;;;7.60;79.70;;;;;;5053279;28;20211;-71
2022/01/30 06:37:25;;;;;;;22.63;21.25;;;7.50;79.70;;;;;;5054316;28;20200;-72
2022/01/30 06:39:54;;;;;;;21.42;20.13;;;7.50;80.10;;;;;;5054178;28;20304;-71
2022/01/30 06:42:21;;;;;;;22.25;20.48;;;7.60;79.80;;;;;;5054356;28;20287;-71
2022/01/30 06:44:48;;;;;;;21.10;19.50;;;7.40;79.90;;;;;;5054321;28;20197;-71
2022/01/30 06:47:15;;;;;;;22.55;20.95;;;7.40;79.90;;;;;;5054084;28;20292;-72
2022/01/30 06:49:42;;;;;;;21.23;19.65;;;7.30;79.80;;;;;;5053918;28;20693;-71
2022/01/30 06:52:09;;;;;;;22.00;20.00;;;7.20;80.30;;;;;;5054237;28;20717;-71
2022/01/30 06:54:38;;;;;;;23.02;21.25;;;7.20;80.20;;;;;;5054059;28;20292;-71
2022/01/30 06:57:07;;;;;;;21.90;20.40;;;7.20;80.70;;;;;;5053953;28;20197;-72
2022/01/30 06:59:35;;;;;;;22.83;20.83;;;7.10;81.10;;;;;;5053633;28;20211;-71
2022/01/30 07:02:02;;;;;;;22.08;19.98;;;7.10;81.20;;;;;;5054011;28;20197;-71
2022/01/30 07:04:29;;;;;;;21.85;20.35;;;7.10;81.10;;;;;;5053830;28;20275;-71
2022/01/30 07:06:57;;;;;;;22.92;21.23;;;6.90;80.90;;;;;;5053735;28;20751;-71
2022/01/30 07:09:24;;;;;;;22.60;20.83;;;6.90;81.30;;;;;;5053576;28;20224;-71
2022/01/30 07:11:51;;;;;;;23.55;21.80;;;6.80;81.60;;;;;;5053806;28;20239;-71
2022/01/30 07:14:19;;;;;;;21.73;19.90;;;6.80;81.60;;;;;;5053593;28;20283;-71
2022/01/30 07:16:46;;;;;;;21.85;20.35;;;7.00;81.40;;;;;;5053646;28;20286;-71
2022/01/30 07:19:13;;;;;;;22.27;20.48;;;7.00;81.10;;;;;;5053449;28;20203;-71
2022/01/30 07:21:40;;;;;;;21.00;19.40;;;6.90;82.90;;;;;;5053734;28;20212;-74
2022/01/30 07:24:07;;;;;;;21.42;19.60;;;7.10;81.10;;;;;;5053373;28;20292;-71
2022/01/30 07:26:34;;;;;;;23.38;21.33;;;7.00;80.40;;;;;;5053290;28;20208;-71
2022/01/30 07:29:03;;;;;;;23.33;21.17;;;6.90;81.00;;;;;;5053107;28;20200;-71
2022/01/30 07:31:32;;;;;;;23.00;21.35;;;6.90;81.10;;;;;;5053381;28;20208;-71
2022/01/30 07:33:59;;;;;;;23.80;21.90;;;6.90;81.00;;;;;;5053371;28;20662;-72
2022/01/30 07:36:26;;;;;;;21.35;20.08;;;6.90;80.90;;;;;;5053315;28;20292;-71
2022/01/30 07:38:54;;;;;;;21.90;20.00;;;6.80;81.30;;;;;;5053334;28;20211;-73
2022/01/30 07:41:21;;;;;;;22.15;20.65;;;6.90;81.60;;;;;;5053179;28;20231;-73
2022/01/30 07:43:48;;;;;;;21.98;20.45;;;7.00;82.20;;;;;;5053246;28;20207;-73
2022/01/30 07:46:15;;;;;;;22.05;20.45;;;7.20;81.50;;;;;;5052925;28;20215;-73
2022/01/30 07:48:43;;;;;;;22.83;20.83;;;7.20;80.70;;;;;;5053127;28;20197;-73
2022/01/30 07:51:10;;;;;;;20.73;19.30;;;7.20;81.10;;;;;;5052780;28;20717;-71
2022/01/30 07:53:37;;;;;;;23.25;21.50;;;7.10;81.10;;;;;;5052981;28;20673;-71
2022/01/30 07:56:04;;;;;;;22.63;21.10;;;7.30;80.90;;;;;;5052897;28;20619;-71
2022/01/30 07:58:31;;;;;;;23.83;21.88;;;7.30;80.30;;;;;;5052815;28;20206;-71
2022/01/30 08:00:58;;;;;;;22.83;21.02;;;7.20;79.70;;;;;;5052504;28;20227;-72
2022/01/30 08:03:25;;;;;;;24.23;21.88;;;7.20;80.00;;;;;;5052909;28;20258;-72
2022/01/30 08:05:53;;;;;;;23.67;21.58;;;7.10;80.20;;;;;;5052869;28;20288;-72
2022/01/30 08:08:20;;;;;;;25.27;23.40;;;7.10;79.10;;;;;;5052735;28;20651;-71
2022/01/30 08:10:47;;;;;;;23.92;21.77;;;7.10;79.60;;;;;;5052526;28;20272;-71
2022/01/30 08:13:15;;;;;;;23.13;21.27;;;6.90;79.70;;;;;;5052806;28;20215;-71
2022/01/30 08:15:43;;;;;;;23.45;21.25;;;6.90;79.60;;;;;;5052579;28;20197;-71
2022/01/30 08:18:09;;;;;;;22.42;20.55;;;6.90;79.80;;;;;;5052723;28;20223;-71
2022/01/30 08:20:36;;;;;;;22.25;20.58;;;7.00;78.70;;;;;;5052496;28;20243;-71
2022/01/30 08:23:10;;;;;;;22.77;20.75;;;6.90;78.80;;;;;;5052769;28;20200;-71
2022/01/30 08:25:38;;;;;;;23.70;21.63;;;6.90;78.20;;;;;;5052624;28;20197;-71
2022/01/30 08:28:05;;;;;;;22.90;20.80;;;7.00;78.60;;;;;;5052640;28;20235;-72
2022/01/30 08:30:32;;;;;;;22.13;20.30;;;7.10;78.10;;;;;;5052060;28;20221;-72
2022/01/30 08:32:59;;;;;;;22.50;21.00;;;7.20;77.40;;;;;;5052428;28;20204;-71
2022/01/30 08:35:27;;;;;;;22.55;20.45;;;7.30;76.70;;;;;;5052381;28;20218;-71
2022/01/30 08:37:54;;;;;;;22.75;20.80;;;7.40;77.10;;;;;;5052315;28;20423;-71
2022/01/30 08:40:23;;;;;;;22.65;20.75;;;7.20;76.20;;;;;;5052071;28;20694;-71
2022/01/30 08:42:51;;;;;;;22.73;20.52;;;7.00;76.50;;;;;;5052293;28;20196;-71
2022/01/30 08:45:19;;;;;;;23.77;21.80;;;7.00;76.80;;;;;;5052219;28;20193;-71
2022/01/30 08:47:48;;;;;;;22.38;20.52;;;7.10;76.20;;;;;;5052222;28;20197;-71
2022/01/30 08:50:17;;;;;;;23.50;21.40;;;6.80;76.10;;;;;;5051778;28;20702;-72
2022/01/30 08:52:45;;;;;;;24.05;21.80;;;6.90;76.30;;;;;;5052193;28;20279;-72
2022/01/30 08:55:14;;;;;;;23.27;21.48;;;6.80;76.20;;;;;;5052186;28;20200;-72
2022/01/30 08:57:43;;;;;;;22.80;20.88;;;6.90;75.80;;;;;;5052452;28;20674;-71
2022/01/30 09:00:12;;;;;;;25.15;22.92;;;6.90;76.00;;;;;;5055514;28;20649;-72
2022/01/30 09:02:40;;;;;;;22.77;20.85;;;7.10;76.00;;;;;;5056139;28;20193;-72
2022/01/30 09:05:08;;;;;;;25.30;22.60;;;7.00;75.80;;;;;;5056169;28;20296;-72
2022/01/30 09:07:35;;;;;;;23.70;21.27;;;7.10;75.80;;;;;;5056028;28;20201;-72
2022/01/30 09:10:02;;;;;;;22.30;20.65;;;7.20;75.20;;;;;;5055475;28;20301;-72
2022/01/30 09:12:29;;;;;;;22.52;20.77;;;7.20;75.40;;;;;;5056075;28;20540;-72
2022/01/30 09:14:57;;;;;;;23.48;21.35;;;7.30;76.20;;;;;;5055831;28;20603;-72
2022/01/30 09:17:26;;;;;;;22.75;20.60;;;7.40;75.30;;;;;;5055856;28;20283;-72
2022/01/30 09:19:53;;;;;;;23.73;21.48;;;7.40;75.10;;;;;;5055582;28;20582;-72
2022/01/30 09:22:20;;;;;;;24.38;22.38;;;7.50;75.50;;;;;;5055914;28;20201;-72
2022/01/30 09:24:48;;;;;;;23.45;21.90;;;7.50;75.10;;;;;;5055810;28;20291;-72
2022/01/30 09:27:16;;;;;;;23.10;20.80;;;7.50;74.70;;;;;;5055885;28;20207;-72
2022/01/30 09:29:44;;;;;;;23.00;20.52;;;7.50;74.30;;;;;;5055475;28;20197;-72
2022/01/30 09:32:12;;;;;;;23.23;21.13;;;7.50;74.60;;;;;;5055746;28;20288;-72
2022/01/30 09:34:40;;;;;;;23.02;20.75;;;7.60;74.80;;;;;;5055627;28;20193;-73
2022/01/30 09:37:07;;;;;;;23.00;20.73;;;7.70;75.90;;;;;;5055572;28;20559;-72
2022/01/30 09:39:35;;;;;;;23.92;22.05;;;7.70;74.50;;;;;;5055326;28;20280;-72
2022/01/30 09:42:01;;;;;;;22.50;20.90;;;7.60;73.90;;;;;;5055590;28;20203;-72
2022/01/30 09:44:28;;;;;;;22.67;20.45;;;7.50;74.30;;;;;;5055442;28;20299;-72
2022/01/30 09:46:55;;;;;;;23.83;22.23;;;7.60;74.30;;;;;;5055342;28;20196;-71
2022/01/30 09:49:26;;;;;;;23.60;21.60;;;7.70;74.30;;;;;;5055209;28;20197;-72
2022/01/30 09:51:54;;;;;;;25.15;23.00;;;7.60;73.90;;;;;;5055317;28;20307;-72
2022/01/30 09:54:21;;;;;;;22.70;20.88;;;7.70;73.60;;;;;;5055306;28;20207;-72
2022/01/30 09:56:48;;;;;;;23.45;21.55;;;7.80;75.90;;;;;;5055192;28;20207;-72
2022/01/30 09:59:15;;;;;;;26.10;23.77;;;7.90;73.70;;;;;;5054805;28;20307;-72
2022/01/30 10:01:42;;;;;;;24.63;22.90;;;7.80;71.00;;;;;;5055267;28;20208;-72
2022/01/30 10:04:09;;;;;;;23.25;21.50;;;7.70;71.30;;;;;;5055058;28;20659;-72
2022/01/30 10:06:57;;;;;;;23.15;21.55;;;7.70;71.40;;;;;;5055082;28;20300;-72
2022/01/30 10:09:28;;;;;;;23.30;21.48;;;7.70;69.90;;;;;;5054521;28;20192;-71
2022/01/30 10:12:11;;;;;;;23.42;21.40;;;7.70;70.40;;;;;;5054979;28;20274;-72
2022/01/30 10:14:59;;;;;;;22.05;20.67;;;7.80;70.90;;;;;;5054681;28;20193;-71
2022/01/30 10:17:32;;;;;;;23.55;21.55;;;7.70;70.20;;;;;;5054984;28;20543;-72
2022/01/30 10:20:06;;;;;;;24.00;22.30;;;7.60;70.80;;;;;;5054450;28;20764;-72
2022/01/30 10:22:36;;;;;;;24.23;22.05;;;7.90;70.80;;;;;;5054844;28;20204;-72
2022/01/30 10:25:04;;;;;;;25.55;23.58;;;8.00;69.50;;;;;;5054700;28;20266;-72
2022/01/30 10:27:33;;;;;;;24.35;22.55;;;8.00;68.20;;;;;;5054630;28;20196;-71
2022/01/30 10:30:02;;;;;;;24.20;22.17;;;7.70;69.00;;;;;;5054206;28;20225;-72
2022/01/30 10:32:30;;;;;;;24.67;23.05;;;7.80;71.20;;;;;;5054578;28;20239;-72
2022/01/30 10:34:59;;;;;;;24.42;22.27;;;8.00;70.00;;;;;;5054371;28;20300;-72
2022/01/30 10:37:26;;;;;;;26.77;23.52;;;8.20;69.20;;;;;;5054521;28;20205;-72
2022/01/30 10:39:57;;;;;;;24.77;23.00;;;8.20;68.60;;;;;;5054363;28;20212;-72
2022/01/30 10:42:32;;;;;;;23.58;21.65;;;7.80;68.90;;;;;;5054669;28;20197;-72
2022/01/30 10:44:59;;;;;;;24.85;22.58;;;7.80;68.80;;;;;;5054509;28;20577;-72
2022/01/30 10:47:26;;;;;;;24.77;22.63;;;7.80;68.60;;;;;;5054410;28;20203;-72
2022/01/30 10:49:53;;;;;;;23.05;21.05;;;7.80;67.90;;;;;;5054074;28;20235;-72
2022/01/30 10:52:22;;;;;;;23.48;21.40;;;7.80;68.20;;;;;;5054093;28;20547;-72
2022/01/30 10:54:51;;;;;;;23.20;21.38;;;7.90;67.00;;;;;;5054157;28;20611;-72
2022/01/30 10:57:19;;;;;;;23.83;22.15;;;7.80;67.60;;;;;;5053997;28;20635;-73
2022/01/30 10:59:53;;;;;;;23.42;21.60;;;7.70;67.10;;;;;;5053628;28;20268;-72
2022/01/30 11:02:23;;;;;;;25.45;23.50;;;7.80;67.00;;;;;;5054036;28;20246;-72
2022/01/30 11:04:51;;;;;;;23.17;21.48;;;7.80;67.00;;;;;;5053812;28;20573;-72
2022/01/30 11:07:28;;;;;;;23.58;21.50;;;7.90;67.40;;;;;;5053893;28;20200;-72
2022/01/30 11:09:59;;;;;;;25.50;22.35;;;8.10;66.70;;;;;;5053010;28;20227;-72
2022/01/30 11:12:34;;;;;;;23.83;21.95;;;8.10;66.60;;;;;;5053694;28;20809;-73
2022/01/30 11:15:16;;;;;;;22.83;20.92;;;8.20;66.50;;;;;;5053639;28;20192;-72
2022/01/30 11:17:44;;;;;;;23.98;22.05;;;8.20;67.10;;;;;;5053734;28;20649;-73
2022/01/30 11:20:13;;;;;;;23.73;22.10;;;8.00;67.30;;;;;;5053192;28;20219;-72
2022/01/30 11:22:42;;;;;;;24.65;22.63;;;8.20;67.50;;;;;;5052907;28;20270;-72
2022/01/30 11:25:12;;;;;;;22.95;21.35;;;8.30;67.00;;;;;;5053469;28;20283;-73
2022/01/30 11:27:41;;;;;;;26.45;23.70;;;8.40;67.00;;;;;;5053525;28;20200;-73
2022/01/30 11:30:10;;;;;;;24.30;22.02;;;7.80;67.90;;;;;;5053062;28;20228;-73
2022/01/30 11:32:37;;;;;;;23.88;22.08;;;7.70;68.10;;;;;;5053316;28;20235;-73
2022/01/30 11:35:04;;;;;;;24.95;23.00;;;7.80;68.10;;;;;;5053155;28;20540;-72
2022/01/30 11:37:33;;;;;;;22.88;20.77;;;7.80;67.00;;;;;;5053111;28;20197;-72
2022/01/30 11:40:01;;;;;;;23.50;21.27;;;7.80;67.30;;;;;;5053144;28;20220;-72
2022/01/30 11:42:37;;;;;;;23.05;21.17;;;7.80;66.30;;;;;;5053092;28;20792;-73
2022/01/30 11:45:17;;;;;;;23.15;21.40;;;7.90;66.50;;;;;;5053235;28;20279;-72
2022/01/30 11:47:47;;;;;;;25.15;22.73;;;7.90;65.60;;;;;;5053154;28;20283;-72
2022/01/30 11:50:17;;;;;;;23.33;21.67;;;8.10;65.70;;;;;;5052736;28;20713;-73
2022/01/30 11:53:03;;;;;;;23.42;21.50;;;8.40;64.40;;;;;;5052974;28;20311;-72
2022/01/30 11:55:56;;;;;;;22.88;21.20;;;8.40;64.00;;;;;;5052877;28;20197;-72
2022/01/30 11:58:41;;;;;;;22.88;20.88;;;8.30;63.70;;;;;;5052873;28;20566;-72
2022/01/30 12:01:37;;;;;;;23.02;21.23;;;8.30;64.40;;;;;;5052718;28;20935;-72
2022/01/30 12:04:12;;;;;;;24.35;22.05;;;8.30;63.80;;;;;;5052675;28;20666;-72
2022/01/30 12:06:41;;;;;;;25.60;23.50;;;8.10;64.80;;;;;;5052771;28;20204;-73
2022/01/30 12:09:26;;;;;;;24.15;21.75;;;8.20;64.30;;;;;;5052475;28;20205;-73
2022/01/30 12:11:55;;;;;;;23.58;21.67;;;8.40;63.10;;;;;;5052682;28;20265;-73
2022/01/30 12:14:59;;;;;;;23.15;21.25;;;8.50;62.90;;;;;;5052427;28;20218;-73
2022/01/30 12:18:00;;;;;;;22.17;20.42;;;8.60;63.30;;;;;;5052714;28;20223;-73
2022/01/30 12:20:30;;;;;;;23.58;21.80;;;8.90;62.40;;;;;;5052393;28;20251;-73
2022/01/30 12:22:58;;;;;;;22.65;20.85;;;9.00;62.30;;;;;;5052597;28;20240;-73
2022/01/30 12:25:39;;;;;;;22.25;20.60;;;9.10;61.90;;;;;;5052468;28;20193;-73
2022/01/30 12:28:08;;;;;;;23.85;21.75;;;8.90;62.70;;;;;;5052630;28;20268;-73
2022/01/30 12:30:39;;;;;;;25.63;23.50;;;9.10;62.50;;;;;;5051977;28;20220;-72
2022/01/30 12:33:35;;;;;;;23.10;21.40;;;9.20;62.20;;;;;;5051482;28;20266;-73
2022/01/30 12:36:03;;;;;;;23.20;21.52;;;9.20;62.40;;;;;;5052384;28;20623;-73
2022/01/30 12:38:33;;;;;;;23.87;22.00;;;9.20;62.50;;;;;;5052236;28;20196;-73
2022/01/30 12:41:00;;;;;;;23.30;21.37;;;9.20;62.40;;;;;;5052045;28;20565;-72
2022/01/30 12:43:29;;;;;;;23.40;21.70;;;9.10;61.70;;;;;;5052314;28;20455;-72
2022/01/30 12:46:06;;;;;;;22.73;21.03;;;9.20;62.20;;;;;;5052275;28;21002;-73
2022/01/30 12:48:35;;;;;;;23.95;22.02;;;9.30;62.60;;;;;;5052140;28;20512;-72
2022/01/30 12:51:06;;;;;;;24.03;21.87;;;9.40;62.10;;;;;;5052023;28;20252;-73
2022/01/30 12:53:36;;;;;;;24.43;22.23;;;9.40;61.20;;;;;;5052349;28;20454;-73
2022/01/30 12:56:04;;;;;;;25.30;23.50;;;9.30;61.30;;;;;;5052205;28;20446;-72
2022/01/30 12:58:34;;;;;;;23.30;21.60;;;9.40;61.30;;;;;;5052043;28;20461;-72
2022/01/30 13:01:11;;;;;;;24.03;22.20;;;9.30;60.50;;;;;;5052066;28;20479;-72
2022/01/30 13:03:40;;;;;;;23.40;21.60;;;8.90;61.40;;;;;;5052237;28;20944;-72
2022/01/30 13:06:07;;;;;;;24.80;22.60;;;8.70;62.40;;;;;;5052221;28;20209;-72
2022/01/30 13:08:46;;;;;;;22.93;21.00;;;8.80;64.60;;;;;;5051996;28;20862;-73
2022/01/30 13:11:21;;;;;;;23.60;21.60;;;9.10;62.50;;;;;;5051946;28;20485;-72
2022/01/30 13:14:02;;;;;;;23.30;21.20;;;9.20;62.60;;;;;;5052023;28;20464;-72
2022/01/30 13:16:36;;;;;;;24.33;22.70;;;9.20;63.10;;;;;;5051979;28;20463;-72
2022/01/30 13:19:08;;;;;;;23.03;21.30;;;9.30;62.10;;;;;;5051844;28;20557;-73
2022/01/30 13:21:36;;;;;;;25.70;23.63;;;9.40;62.30;;;;;;5051986;28;20474;-72
2022/01/30 13:24:04;;;;;;;25.23;23.17;;;9.40;63.20;;;;;;5051938;28;20462;-73
2022/01/30 13:26:42;;;;;;;24.80;23.03;;;9.20;61.00;;;;;;5051897;28;20453;-73